sensor_id;sensor_type;location;lat;lon;timestamp;P1;durP1;ratioP1;P2;durP2;ratioP2
14102;SDS011;7129;48.832;12.472;2022-11-23T00:04:37;36.78;;;22.27;;
14102;SDS011;7129;48.832;12.472;2022-11-23T00:09:39;44.35;;;23.85;;
14102;SDS011;7129;48.832;12.472;2022-11-23T00:20:00;71.22;;;25.10;;
14102;SDS011;7129;48.832;12.472;2022-11-23T00:25:02;74.20;;;23.48;;
14102;SDS011;7129;48.832;12.472;2022-11-23T00:30:06;48.03;;;22.95;;
14102;SDS011;7129;48.832;12.472;2022-11-23T00:35:09;73.00;;;27.13;;
14102;SDS011;7129;48.832;12.472;2022-11-23T00:40:12;50.13;;;23.45;;
14102;SDS011;7129;48.832;12.472;2022-11-23T00:45:15;50.63;;;23.08;;
14102;SDS011;7129;48.832;12.472;2022-11-23T00:50:17;37.58;;;19.80;;
14102;SDS011;7129;48.832;12.472;2022-11-23T00:55:19;33.05;;;19.65;;
14102;SDS011;7129;48.832;12.472;2022-11-23T01:00:23;46.22;;;21.77;;
14102;SDS011;7129;48.832;12.472;2022-11-23T01:05:25;50.22;;;22.02;;
14102;SDS011;7129;48.832;12.472;2022-11-23T01:10:28;84.47;;;26.38;;
14102;SDS011;7129;48.832;12.472;2022-11-23T01:15:31;95.32;;;26.77;;
14102;SDS011;7129;48.832;12.472;2022-11-23T01:20:33;36.67;;;18.63;;
14102;SDS011;7129;48.832;12.472;2022-11-23T01:25:35;69.47;;;23.17;;
14102;SDS011;7129;48.832;12.472;2022-11-23T01:30:38;52.38;;;19.85;;
14102;SDS011;7129;48.832;12.472;2022-11-23T01:35:40;54.63;;;23.80;;
14102;SDS011;7129;48.832;12.472;2022-11-23T01:40:57;26.02;;;17.08;;
14102;SDS011;7129;48.832;12.472;2022-11-23T01:46:01;51.72;;;20.60;;
14102;SDS011;7129;48.832;12.472;2022-11-23T01:51:03;65.15;;;21.67;;
14102;SDS011;7129;48.832;12.472;2022-11-23T01:56:09;35.25;;;17.92;;
14102;SDS011;7129;48.832;12.472;2022-11-23T02:01:16;41.92;;;20.20;;
14102;SDS011;7129;48.832;12.472;2022-11-23T02:06:18;25.92;;;17.80;;
14102;SDS011;7129;48.832;12.472;2022-11-23T02:11:23;61.50;;;25.20;;
14102;SDS011;7129;48.832;12.472;2022-11-23T02:16:26;51.20;;;21.25;;
14102;SDS011;7129;48.832;12.472;2022-11-23T02:21:29;49.50;;;22.08;;
14102;SDS011;7129;48.832;12.472;2022-11-23T02:26:33;51.75;;;23.33;;
14102;SDS011;7129;48.832;12.472;2022-11-23T02:31:36;34.72;;;18.52;;
14102;SDS011;7129;48.832;12.472;2022-11-23T02:36:39;42.63;;;21.85;;
14102;SDS011;7129;48.832;12.472;2022-11-23T02:41:44;37.03;;;18.70;;
14102;SDS011;7129;48.832;12.472;2022-11-23T02:46:48;30.02;;;18.45;;
14102;SDS011;7129;48.832;12.472;2022-11-23T02:51:50;42.47;;;18.77;;
14102;SDS011;7129;48.832;12.472;2022-11-23T02:56:54;33.70;;;19.50;;
14102;SDS011;7129;48.832;12.472;2022-11-23T03:01:56;34.30;;;17.55;;
14102;SDS011;7129;48.832;12.472;2022-11-23T03:06:58;27.45;;;17.95;;
14102;SDS011;7129;48.832;12.472;2022-11-23T03:12:02;23.08;;;17.13;;
14102;SDS011;7129;48.832;12.472;2022-11-23T03:17:04;25.48;;;17.15;;
14102;SDS011;7129;48.832;12.472;2022-11-23T03:22:06;23.38;;;16.90;;
14102;SDS011;7129;48.832;12.472;2022-11-23T03:27:09;24.60;;;16.75;;
14102;SDS011;7129;48.832;12.472;2022-11-23T03:32:11;21.20;;;16.95;;
14102;SDS011;7129;48.832;12.472;2022-11-23T03:37:13;22.42;;;17.20;;
14102;SDS011;7129;48.832;12.472;2022-11-23T03:42:17;22.55;;;15.68;;
14102;SDS011;7129;48.832;12.472;2022-11-23T03:47:19;30.70;;;18.60;;
14102;SDS011;7129;48.832;12.472;2022-11-23T03:52:21;34.08;;;19.90;;
14102;SDS011;7129;48.832;12.472;2022-11-23T03:57:24;25.95;;;18.90;;
14102;SDS011;7129;48.832;12.472;2022-11-23T04:02:26;59.83;;;23.48;;
14102;SDS011;7129;48.832;12.472;2022-11-23T04:07:28;58.17;;;25.42;;
14102;SDS011;7129;48.832;12.472;2022-11-23T04:12:31;31.97;;;20.77;;
14102;SDS011;7129;48.832;12.472;2022-11-23T04:17:33;35.58;;;18.08;;
14102;SDS011;7129;48.832;12.472;2022-11-23T04:22:35;59.28;;;23.20;;
14102;SDS011;7129;48.832;12.472;2022-11-23T04:27:39;56.03;;;24.33;;
14102;SDS011;7129;48.832;12.472;2022-11-23T04:32:42;49.53;;;22.40;;
14102;SDS011;7129;48.832;12.472;2022-11-23T04:37:45;89.20;;;26.40;;
14102;SDS011;7129;48.832;12.472;2022-11-23T04:42:48;65.40;;;23.45;;
14102;SDS011;7129;48.832;12.472;2022-11-23T04:47:51;51.70;;;22.00;;
14102;SDS011;7129;48.832;12.472;2022-11-23T04:52:53;60.75;;;24.42;;
14102;SDS011;7129;48.832;12.472;2022-11-23T04:57:56;61.03;;;26.02;;
14102;SDS011;7129;48.832;12.472;2022-11-23T05:02:58;64.88;;;27.55;;
14102;SDS011;7129;48.832;12.472;2022-11-23T05:08:00;90.95;;;30.83;;
14102;SDS011;7129;48.832;12.472;2022-11-23T05:13:04;133.48;;;32.10;;
14102;SDS011;7129;48.832;12.472;2022-11-23T05:18:06;106.68;;;29.02;;
14102;SDS011;7129;48.832;12.472;2022-11-23T05:23:09;102.97;;;28.53;;
14102;SDS011;7129;48.832;12.472;2022-11-23T05:28:14;158.52;;;36.13;;
14102;SDS011;7129;48.832;12.472;2022-11-23T05:33:17;76.10;;;24.27;;
14102;SDS011;7129;48.832;12.472;2022-11-23T05:38:19;63.50;;;22.63;;
14102;SDS011;7129;48.832;12.472;2022-11-23T05:43:22;112.25;;;27.70;;
14102;SDS011;7129;48.832;12.472;2022-11-23T05:48:25;98.55;;;25.33;;
14102;SDS011;7129;48.832;12.472;2022-11-23T05:53:27;95.13;;;26.43;;
14102;SDS011;7129;48.832;12.472;2022-11-23T05:58:30;50.63;;;22.08;;
14102;SDS011;7129;48.832;12.472;2022-11-23T06:03:32;131.40;;;32.47;;
14102;SDS011;7129;48.832;12.472;2022-11-23T06:08:34;71.13;;;24.80;;
14102;SDS011;7129;48.832;12.472;2022-11-23T06:13:37;56.38;;;23.38;;
14102;SDS011;7129;48.832;12.472;2022-11-23T06:18:39;60.90;;;23.15;;
14102;SDS011;7129;48.832;12.472;2022-11-23T06:23:41;50.08;;;22.42;;
14102;SDS011;7129;48.832;12.472;2022-11-23T06:28:44;59.70;;;24.38;;
14102;SDS011;7129;48.832;12.472;2022-11-23T06:33:46;66.15;;;26.02;;
14102;SDS011;7129;48.832;12.472;2022-11-23T06:38:48;64.70;;;23.60;;
14102;SDS011;7129;48.832;12.472;2022-11-23T06:43:51;45.67;;;24.20;;
14102;SDS011;7129;48.832;12.472;2022-11-23T06:48:53;27.20;;;18.95;;
14102;SDS011;7129;48.832;12.472;2022-11-23T06:53:55;49.10;;;23.98;;
14102;SDS011;7129;48.832;12.472;2022-11-23T06:58:58;52.08;;;23.70;;
14102;SDS011;7129;48.832;12.472;2022-11-23T07:04:00;45.53;;;22.83;;
14102;SDS011;7129;48.832;12.472;2022-11-23T07:09:02;107.07;;;34.28;;
14102;SDS011;7129;48.832;12.472;2022-11-23T07:14:08;64.65;;;28.73;;
14102;SDS011;7129;48.832;12.472;2022-11-23T07:19:10;52.25;;;24.45;;
14102;SDS011;7129;48.832;12.472;2022-11-23T07:24:14;49.75;;;27.27;;
14102;SDS011;7129;48.832;12.472;2022-11-23T07:29:30;44.35;;;26.83;;
14102;SDS011;7129;48.832;12.472;2022-11-23T07:34:32;35.03;;;24.73;;
14102;SDS011;7129;48.832;12.472;2022-11-23T07:39:34;24.60;;;18.85;;
14102;SDS011;7129;48.832;12.472;2022-11-23T08:38:42;20.52;;;17.73;;
14102;SDS011;7129;48.832;12.472;2022-11-23T08:43:44;21.27;;;17.90;;
14102;SDS011;7129;48.832;12.472;2022-11-23T08:48:46;25.15;;;19.65;;
14102;SDS011;7129;48.832;12.472;2022-11-23T08:53:49;29.08;;;19.05;;
14102;SDS011;7129;48.832;12.472;2022-11-23T08:58:51;25.55;;;20.42;;
14102;SDS011;7129;48.832;12.472;2022-11-23T09:03:53;23.25;;;19.33;;
14102;SDS011;7129;48.832;12.472;2022-11-23T09:08:56;25.42;;;18.83;;
14102;SDS011;7129;48.832;12.472;2022-11-23T09:13:58;23.20;;;19.67;;
14102;SDS011;7129;48.832;12.472;2022-11-23T09:19:00;27.30;;;21.23;;
14102;SDS011;7129;48.832;12.472;2022-11-23T09:24:04;22.60;;;19.90;;
14102;SDS011;7129;48.832;12.472;2022-11-23T09:29:07;28.38;;;19.98;;
14102;SDS011;7129;48.832;12.472;2022-11-23T09:34:10;25.75;;;20.48;;
14102;SDS011;7129;48.832;12.472;2022-11-23T09:39:14;23.65;;;19.27;;
14102;SDS011;7129;48.832;12.472;2022-11-23T09:44:18;21.52;;;19.23;;
14102;SDS011;7129;48.832;12.472;2022-11-23T09:49:25;26.95;;;20.65;;
14102;SDS011;7129;48.832;12.472;2022-11-23T09:54:35;32.80;;;26.65;;
14102;SDS011;7129;48.832;12.472;2022-11-23T09:59:40;22.65;;;19.00;;
14102;SDS011;7129;48.832;12.472;2022-11-23T10:04:54;21.88;;;19.27;;
14102;SDS011;7129;48.832;12.472;2022-11-23T10:10:03;21.65;;;17.75;;
14102;SDS011;7129;48.832;12.472;2022-11-23T10:15:14;21.08;;;17.05;;
14102;SDS011;7129;48.832;12.472;2022-11-23T10:20:27;20.60;;;16.90;;
14102;SDS011;7129;48.832;12.472;2022-11-23T10:25:41;20.38;;;17.10;;
14102;SDS011;7129;48.832;12.472;2022-11-23T10:30:50;20.70;;;18.17;;
14102;SDS011;7129;48.832;12.472;2022-11-23T10:35:56;21.02;;;18.30;;
14102;SDS011;7129;48.832;12.472;2022-11-23T10:41:01;19.58;;;16.80;;
14102;SDS011;7129;48.832;12.472;2022-11-23T10:46:23;24.92;;;19.85;;
14102;SDS011;7129;48.832;12.472;2022-11-23T10:51:28;20.00;;;17.38;;
14102;SDS011;7129;48.832;12.472;2022-11-23T10:56:33;19.50;;;17.08;;
14102;SDS011;7129;48.832;12.472;2022-11-23T11:01:35;19.77;;;16.55;;
14102;SDS011;7129;48.832;12.472;2022-11-23T11:06:37;20.13;;;17.45;;
14102;SDS011;7129;48.832;12.472;2022-11-23T11:11:44;20.48;;;16.10;;
14102;SDS011;7129;48.832;12.472;2022-11-23T11:16:48;17.25;;;13.93;;
14102;SDS011;7129;48.832;12.472;2022-11-23T11:21:51;19.02;;;15.77;;
14102;SDS011;7129;48.832;12.472;2022-11-23T11:26:57;20.05;;;17.95;;
14102;SDS011;7129;48.832;12.472;2022-11-23T11:32:02;25.20;;;19.35;;
14102;SDS011;7129;48.832;12.472;2022-11-23T11:37:11;22.15;;;18.77;;
14102;SDS011;7129;48.832;12.472;2022-11-23T11:42:20;24.10;;;20.50;;
14102;SDS011;7129;48.832;12.472;2022-11-23T11:47:26;25.13;;;20.63;;
14102;SDS011;7129;48.832;12.472;2022-11-23T11:52:31;28.38;;;22.95;;
14102;SDS011;7129;48.832;12.472;2022-11-23T11:57:40;31.13;;;24.10;;
14102;SDS011;7129;48.832;12.472;2022-11-23T12:02:51;31.95;;;26.83;;
14102;SDS011;7129;48.832;12.472;2022-11-23T12:08:01;27.65;;;22.63;;
14102;SDS011;7129;48.832;12.472;2022-11-23T12:13:13;26.05;;;22.63;;
14102;SDS011;7129;48.832;12.472;2022-11-23T12:23:43;26.08;;;22.85;;
14102;SDS011;7129;48.832;12.472;2022-11-23T12:34:35;26.20;;;21.63;;
14102;SDS011;7129;48.832;12.472;2022-11-23T12:45:55;27.77;;;21.33;;
14102;SDS011;7129;48.832;12.472;2022-11-23T12:57:06;24.83;;;19.80;;
14102;SDS011;7129;48.832;12.472;2022-11-23T13:02:24;26.63;;;20.17;;
14102;SDS011;7129;48.832;12.472;2022-11-23T13:07:51;25.17;;;20.77;;
14102;SDS011;7129;48.832;12.472;2022-11-23T13:13:22;29.00;;;21.35;;
14102;SDS011;7129;48.832;12.472;2022-11-23T13:18:37;27.48;;;21.98;;
14102;SDS011;7129;48.832;12.472;2022-11-23T13:23:49;25.75;;;21.25;;
14102;SDS011;7129;48.832;12.472;2022-11-23T13:28:51;27.90;;;22.10;;
14102;SDS011;7129;48.832;12.472;2022-11-23T13:33:56;28.58;;;22.25;;
14102;SDS011;7129;48.832;12.472;2022-11-23T13:39:01;30.88;;;22.85;;
14102;SDS011;7129;48.832;12.472;2022-11-23T13:44:16;27.23;;;23.17;;
14102;SDS011;7129;48.832;12.472;2022-11-23T13:49:28;25.20;;;22.10;;
14102;SDS011;7129;48.832;12.472;2022-11-23T13:54:32;27.67;;;22.02;;
14102;SDS011;7129;48.832;12.472;2022-11-23T13:59:34;26.45;;;22.38;;
14102;SDS011;7129;48.832;12.472;2022-11-23T14:04:37;29.45;;;24.23;;
14102;SDS011;7129;48.832;12.472;2022-11-23T14:09:42;28.60;;;24.55;;
14102;SDS011;7129;48.832;12.472;2022-11-23T14:14:50;31.05;;;25.20;;
14102;SDS011;7129;48.832;12.472;2022-11-23T14:25:43;32.15;;;25.08;;
14102;SDS011;7129;48.832;12.472;2022-11-23T14:30:58;35.50;;;26.27;;
14102;SDS011;7129;48.832;12.472;2022-11-23T14:36:11;32.72;;;26.20;;
14102;SDS011;7129;48.832;12.472;2022-11-23T14:41:25;31.70;;;24.40;;
14102;SDS011;7129;48.832;12.472;2022-11-23T14:46:30;33.88;;;26.85;;
14102;SDS011;7129;48.832;12.472;2022-11-23T14:51:34;35.28;;;25.55;;
14102;SDS011;7129;48.832;12.472;2022-11-23T15:15:20;39.05;;;27.60;;
14102;SDS011;7129;48.832;12.472;2022-11-23T15:20:24;36.25;;;26.83;;
14102;SDS011;7129;48.832;12.472;2022-11-23T15:25:31;42.38;;;30.88;;
14102;SDS011;7129;48.832;12.472;2022-11-23T15:30:36;37.83;;;27.17;;
14102;SDS011;7129;48.832;12.472;2022-11-23T15:35:38;38.28;;;26.95;;
14102;SDS011;7129;48.832;12.472;2022-11-23T15:40:41;50.60;;;33.72;;
14102;SDS011;7129;48.832;12.472;2022-11-23T15:46:00;49.35;;;32.85;;
14102;SDS011;7129;48.832;12.472;2022-11-23T15:51:05;43.53;;;29.83;;
14102;SDS011;7129;48.832;12.472;2022-11-23T15:56:12;44.78;;;27.67;;
14102;SDS011;7129;48.832;12.472;2022-11-23T16:01:23;46.63;;;27.50;;
14102;SDS011;7129;48.832;12.472;2022-11-23T16:06:40;42.42;;;28.05;;
14102;SDS011;7129;48.832;12.472;2022-11-23T16:11:50;52.45;;;30.60;;
14102;SDS011;7129;48.832;12.472;2022-11-23T16:16:59;39.58;;;25.85;;
14102;SDS011;7129;48.832;12.472;2022-11-23T16:22:05;70.72;;;33.72;;
14102;SDS011;7129;48.832;12.472;2022-11-23T16:27:20;59.58;;;30.05;;
14102;SDS011;7129;48.832;12.472;2022-11-23T16:32:26;57.55;;;29.92;;
14102;SDS011;7129;48.832;12.472;2022-11-23T16:37:30;65.53;;;31.27;;
14102;SDS011;7129;48.832;12.472;2022-11-23T16:42:32;74.65;;;33.13;;
14102;SDS011;7129;48.832;12.472;2022-11-23T16:47:42;55.95;;;29.60;;
14102;SDS011;7129;48.832;12.472;2022-11-23T16:52:52;63.03;;;32.00;;
14102;SDS011;7129;48.832;12.472;2022-11-23T16:57:53;48.88;;;29.55;;
14102;SDS011;7129;48.832;12.472;2022-11-23T17:02:57;48.72;;;29.95;;
14102;SDS011;7129;48.832;12.472;2022-11-23T17:07:59;69.25;;;33.92;;
14102;SDS011;7129;48.832;12.472;2022-11-23T17:13:01;59.95;;;33.95;;
14102;SDS011;7129;48.832;12.472;2022-11-23T17:18:07;67.47;;;34.85;;
14102;SDS011;7129;48.832;12.472;2022-11-23T17:23:12;44.83;;;29.10;;
14102;SDS011;7129;48.832;12.472;2022-11-23T17:28:14;45.45;;;30.02;;
14102;SDS011;7129;48.832;12.472;2022-11-23T17:33:21;46.28;;;31.27;;
14102;SDS011;7129;48.832;12.472;2022-11-23T17:38:23;54.35;;;33.58;;
14102;SDS011;7129;48.832;12.472;2022-11-23T17:43:26;56.30;;;35.22;;
14102;SDS011;7129;48.832;12.472;2022-11-23T17:48:31;56.80;;;36.20;;
14102;SDS011;7129;48.832;12.472;2022-11-23T17:53:34;57.70;;;34.55;;
14102;SDS011;7129;48.832;12.472;2022-11-23T17:58:41;63.28;;;36.97;;
14102;SDS011;7129;48.832;12.472;2022-11-23T18:03:45;56.97;;;34.58;;
14102;SDS011;7129;48.832;12.472;2022-11-23T18:08:47;59.85;;;36.28;;
14102;SDS011;7129;48.832;12.472;2022-11-23T18:13:50;57.35;;;35.75;;
14102;SDS011;7129;48.832;12.472;2022-11-23T18:18:53;61.33;;;36.70;;
14102;SDS011;7129;48.832;12.472;2022-11-23T18:23:55;58.25;;;36.30;;
14102;SDS011;7129;48.832;12.472;2022-11-23T18:28:57;63.05;;;38.30;;
14102;SDS011;7129;48.832;12.472;2022-11-23T18:34:01;67.40;;;37.40;;
14102;SDS011;7129;48.832;12.472;2022-11-23T18:39:20;64.15;;;36.47;;
14102;SDS011;7129;48.832;12.472;2022-11-23T18:44:22;61.72;;;36.63;;
14102;SDS011;7129;48.832;12.472;2022-11-23T18:49:26;63.58;;;37.28;;
14102;SDS011;7129;48.832;12.472;2022-11-23T18:54:27;77.65;;;40.17;;
14102;SDS011;7129;48.832;12.472;2022-11-23T18:59:29;60.03;;;35.50;;
14102;SDS011;7129;48.832;12.472;2022-11-23T19:04:33;73.68;;;40.05;;
14102;SDS011;7129;48.832;12.472;2022-11-23T19:09:35;58.88;;;34.25;;
14102;SDS011;7129;48.832;12.472;2022-11-23T19:14:37;53.78;;;32.42;;
14102;SDS011;7129;48.832;12.472;2022-11-23T19:19:41;40.55;;;27.45;;
14102;SDS011;7129;48.832;12.472;2022-11-23T19:24:43;49.25;;;31.02;;
14102;SDS011;7129;48.832;12.472;2022-11-23T19:29:45;46.42;;;29.02;;
14102;SDS011;7129;48.832;12.472;2022-11-23T19:34:48;56.67;;;30.75;;
14102;SDS011;7129;48.832;12.472;2022-11-23T19:39:50;40.90;;;27.70;;
14102;SDS011;7129;48.832;12.472;2022-11-23T19:44:52;47.75;;;28.60;;
14102;SDS011;7129;48.832;12.472;2022-11-23T19:49:55;50.08;;;27.73;;
14102;SDS011;7129;48.832;12.472;2022-11-23T19:54:58;53.35;;;29.60;;
14102;SDS011;7129;48.832;12.472;2022-11-23T19:59:59;46.75;;;28.40;;
14102;SDS011;7129;48.832;12.472;2022-11-23T20:05:03;46.97;;;27.92;;
14102;SDS011;7129;48.832;12.472;2022-11-23T20:10:07;49.30;;;29.33;;
14102;SDS011;7129;48.832;12.472;2022-11-23T20:15:09;43.80;;;26.13;;
14102;SDS011;7129;48.832;12.472;2022-11-23T20:20:12;47.38;;;28.05;;
14102;SDS011;7129;48.832;12.472;2022-11-23T20:25:15;48.33;;;28.45;;
14102;SDS011;7129;48.832;12.472;2022-11-23T20:30:17;55.45;;;28.55;;
14102;SDS011;7129;48.832;12.472;2022-11-23T20:35:21;55.42;;;30.15;;
14102;SDS011;7129;48.832;12.472;2022-11-23T20:40:23;54.78;;;30.55;;
14102;SDS011;7129;48.832;12.472;2022-11-23T20:45:30;52.40;;;28.40;;
14102;SDS011;7129;48.832;12.472;2022-11-23T20:50:45;51.15;;;29.17;;
14102;SDS011;7129;48.832;12.472;2022-11-23T20:55:47;42.00;;;25.33;;
14102;SDS011;7129;48.832;12.472;2022-11-23T21:00:49;44.70;;;26.83;;
14102;SDS011;7129;48.832;12.472;2022-11-23T21:05:52;49.75;;;28.92;;
14102;SDS011;7129;48.832;12.472;2022-11-23T21:10:54;42.85;;;26.55;;
14102;SDS011;7129;48.832;12.472;2022-11-23T21:16:13;47.28;;;29.05;;
14102;SDS011;7129;48.832;12.472;2022-11-23T21:21:16;49.72;;;29.30;;
14102;SDS011;7129;48.832;12.472;2022-11-23T21:26:18;56.10;;;29.80;;
14102;SDS011;7129;48.832;12.472;2022-11-23T21:31:20;44.63;;;27.30;;
14102;SDS011;7129;48.832;12.472;2022-11-23T21:36:25;45.88;;;27.25;;
14102;SDS011;7129;48.832;12.472;2022-11-23T21:41:26;40.67;;;26.48;;
14102;SDS011;7129;48.832;12.472;2022-11-23T21:46:28;43.15;;;27.58;;
14102;SDS011;7129;48.832;12.472;2022-11-23T21:51:32;46.10;;;28.27;;
14102;SDS011;7129;48.832;12.472;2022-11-23T21:56:35;38.05;;;24.38;;
14102;SDS011;7129;48.832;12.472;2022-11-23T22:01:37;37.70;;;26.17;;
14102;SDS011;7129;48.832;12.472;2022-11-23T22:06:41;41.58;;;25.52;;
14102;SDS011;7129;48.832;12.472;2022-11-23T22:11:44;37.95;;;25.45;;
14102;SDS011;7129;48.832;12.472;2022-11-23T22:16:47;42.10;;;26.02;;
14102;SDS011;7129;48.832;12.472;2022-11-23T22:21:51;36.72;;;24.40;;
14102;SDS011;7129;48.832;12.472;2022-11-23T22:26:53;32.80;;;24.00;;
14102;SDS011;7129;48.832;12.472;2022-11-23T22:31:55;35.70;;;25.00;;
14102;SDS011;7129;48.832;12.472;2022-11-23T22:36:58;31.58;;;22.58;;
14102;SDS011;7129;48.832;12.472;2022-11-23T22:42:00;28.67;;;21.35;;
14102;SDS011;7129;48.832;12.472;2022-11-23T22:47:02;24.60;;;19.40;;
14102;SDS011;7129;48.832;12.472;2022-11-23T22:52:06;22.30;;;17.95;;
14102;SDS011;7129;48.832;12.472;2022-11-23T22:57:08;13.57;;;10.98;;
14102;SDS011;7129;48.832;12.472;2022-11-23T23:02:10;12.15;;;10.40;;
14102;SDS011;7129;48.832;12.472;2022-11-23T23:07:13;14.43;;;10.98;;
14102;SDS011;7129;48.832;12.472;2022-11-23T23:12:15;11.30;;;10.10;;
14102;SDS011;7129;48.832;12.472;2022-11-23T23:17:17;12.02;;;9.52;;
14102;SDS011;7129;48.832;12.472;2022-11-23T23:22:20;13.25;;;10.50;;
14102;SDS011;7129;48.832;12.472;2022-11-23T23:27:22;12.32;;;9.82;;
14102;SDS011;7129;48.832;12.472;2022-11-23T23:32:24;11.57;;;8.70;;
14102;SDS011;7129;48.832;12.472;2022-11-23T23:37:27;11.43;;;9.10;;
14102;SDS011;7129;48.832;12.472;2022-11-23T23:42:30;10.63;;;9.60;;
14102;SDS011;7129;48.832;12.472;2022-11-23T23:47:33;10.38;;;9.30;;
14102;SDS011;7129;48.832;12.472;2022-11-23T23:52:36;12.63;;;9.15;;
14102;SDS011;7129;48.832;12.472;2022-11-23T23:57:39;11.45;;;9.77;;
